Relevés horaires Jungfraujoch (Suisse)


Relevés horaires à Jungfraujoch - Lundi 09 Mai 2011
Heure UTC1 Température [°C] Vent [km/h] Hum. [%] Pres.4 [hPa] Visi. [Km] Nébu. [octa] Préc.5 [mm] Cond.
2m. Res. Ros. Dir.2 Vit. Moy. Raf.3
23:00 -2.0 -6.5 -20.4 NNO 13.0 14.8 16.7 23 700(0.1/3h) -- -- -- --
22:00 -1.4 -5.7 -20.8 NNO 13.0 13.0 14.8 21 700(0.5/3h) -- -- -- --
21:00 -1.6 -6 -18.3 NNO 13.0 14.8 20.4 27 700(0.5/3h) -- -- -- --
20:00 -1.4 -3.5 -19.4 NNO 5.6 13.0 14.8 24 700(0.5/3h) -- -- -- --
19:00 -2.7 -7.3 -2.9 NNO 13.0 14.8 20.4 99 700(0.2/3h) -- -- -- --
18:00 -1.8 -6.6 -3.5 NNO 14.8 18.5 25.9 88 700(0.1/3h) 0.5 -- -- Brouillard de plus en plus épais, ciel pas visible
17:00 -1.3 -6.3 -3.0 NNO 16.7 18.5 24.1 88 700(0.3/3h) -- -- -- --
16:00 -1.2 -6.2 -2.6 NO 16.7 16.7 25.9 90 700(0.3/3h) -- -- -- --
15:00 -0.7 -4.9 -3.6 NO 13.0 -- -- 81 700 >70 6/8 -- --
14:00 -0.8 -6 -4.7 NO 18.5 18.5 25.9 75 700(0.4/3h) -- -- -- --
13:00 -0.9 -5.5 -7.0 NNO 14.8 16.7 20.4 63 700(0.7/3h) -- -- -- --
12:00 -1.5 -5.8 -13.9 NO 13.0 16.7 24.1 38 700(0.7/3h) >70 6/8 -- --
11:00 -1.3 -5.2 -16.4 NNO 11.1 16.7 20.4 31 700(0.9/3h) -- -- -- --
10:00 -1.7 -6.8 -17.6 NNO 16.7 16.7 -- 28 700(0.9/3h) -- -- -- --
09:00 -1.4 -6.1 -17.9 NO 14.8 -- -- 27 700 >70 5/8 -- --
08:00 -1.3 -6 -21.5 NO 14.8 16.7 22.2 20 700(0.6/3h) -- -- -- --
07:00 -1.7 -6.1 -21.6 NNO 13.0 13.0 20.4 20 700(0.6/3h) -- -- -- --
06:00 -2.1 -5 -21.8 NO 7.4 18.5 20.4 20 700(0.4/3h) >70 6/8 -- --
05:00 -2.4 -5.3 -20.0 NO 7.4 18.5 20.4 24 700(0.2/3h) -- -- -- --
04:00 -2.3 -7.9 -21.3 NNO 18.5 18.5 20.4 22 700(0.0/3h) -- -- -- --
03:00 -1.9 -4.8 -26.5 NNO 7.4 11.1 18.5 13 700(-0.2/3h) -- -- -- --
02:00 -2.0 -2.0 -31.7 N 1.9 9.3 14.8 8 700(-0.2/3h) -- -- -- --
01:00 -2.1 -5.6 -20.3 NNO 9.3 11.1 18.5 23 700(-0.3/3h) -- -- -- --
00:00 -1.5 -1.5 -23.3 E 3.7 24.1 40.7 17 700(0.0/3h) -- -- -- --

1 Coordinated Universal Time. Actuellement il est 06:00 locale et 04:00 UTC.

2 Le vent souffle depuis la direction indiquée vers la direction oposée.

3 Les rafales max. sont disponible 40 min après l'heure du relevé.

4 Pour les stations d'altitude (plus de 600m) le géopotentiel du niveau le plus proche de la pression obligatoire est indiqué.

5 Les stations disposant d'un diffuseur peuvent indiquer "trace". Cela signifie que des précipitations ont touchés le sol mais que la quantité est inférieure à 0.1 mm.

Copyright

Les données affichées sur cette page sont la propriété exclusive de Météo Suisse.

Récapitulatif de la journée
Température [°C] Vent [km/h] Ensoleillement4 [h] Precipitations totale5 [mm] Pression [Hpa]
Min1 Max.2 Moy.3 Max. Min Max.
-3.2 -0.5 15.9 40.7 11 h 18 min 0 700.0 700.0

1 Température minimale relevée entre 18:00 UTC la veille et 18:00 UTC le jour donné.

2 Température maximale relevée entre 06:00 UTC le jour donné et 06:00 UTC le lendemain.

3 Vent moyen de la journée basé sur les relevés horaires.

4 Ensoleillement en heures relevé entre 06:00 UTC la veille et 06:00 UTC le jour donné.

5 Précipitations totales tombées entre 06:00 UTC la jour donné et 06:00 UTC le lendemain.

Graphiques horaires